createdAt,value
2022-10-06T00:02:08.292Z,21.10
2022-10-06T00:17:11.524Z,21.30
2022-10-06T00:32:14.467Z,21.20
2022-10-06T00:47:19.721Z,35.70
2022-10-06T01:02:34.526Z,62.30
2022-10-06T01:17:43.310Z,22.90
2022-10-06T01:32:46.353Z,18.60
2022-10-06T01:47:49.470Z,20.60
2022-10-06T02:02:52.999Z,24.70
2022-10-06T02:17:56.248Z,18.40
2022-10-06T02:33:03.021Z,23.00
2022-10-06T02:48:06.033Z,22.00
2022-10-06T03:03:09.725Z,21.00
2022-10-06T03:18:13.229Z,22.90
2022-10-06T03:33:16.280Z,19.00
2022-10-06T03:48:19.464Z,22.40
2022-10-06T04:03:22.888Z,22.00
2022-10-06T04:18:26.628Z,20.80
2022-10-06T04:33:32.710Z,20.50
2022-10-06T04:48:35.980Z,25.30
2022-10-06T05:03:39.641Z,23.60
2022-10-06T05:18:43.734Z,20.10
2022-10-06T05:33:48.240Z,23.80
2022-10-06T05:48:55.746Z,29.00
2022-10-06T06:04:03.458Z,22.50
2022-10-06T06:19:13.504Z,19.10
2022-10-06T06:34:18.792Z,18.00
2022-10-06T06:49:23.047Z,18.80
2022-10-06T07:04:33.034Z,22.40
2022-10-06T07:19:51.403Z,9.60
2022-10-06T07:34:55.794Z,8.60
2022-10-06T07:49:59.654Z,9.20
2022-10-06T08:05:04.523Z,9.90
2022-10-06T08:20:11.012Z,11.20
2022-10-06T08:35:15.071Z,9.90
2022-10-06T08:50:21.605Z,9.20
2022-10-06T09:05:30.121Z,6.90
2022-10-06T09:20:38.288Z,6.40
2022-10-06T09:36:09.286Z,9.80
2022-10-06T09:51:17.948Z,6.90
2022-10-06T10:06:28.338Z,5.80
2022-10-06T10:21:34.077Z,4.40
2022-10-06T10:36:51.542Z,4.50
2022-10-06T10:52:03.813Z,3.50
2022-10-06T11:07:21.449Z,4.70
2022-10-06T11:22:41.889Z,4.40
2022-10-06T11:37:56.630Z,22.40
2022-10-06T11:53:00.268Z,4.90
2022-10-06T12:08:04.467Z,8.40
2022-10-06T12:23:22.799Z,7.50
2022-10-06T12:38:33.346Z,9.20
2022-10-06T12:54:11.492Z,4.70
2022-10-06T13:09:14.748Z,7.80
2022-10-06T13:24:20.831Z,2.70
2022-10-06T13:39:26.397Z,6.00
2022-10-06T13:54:38.348Z,4.00
2022-10-06T14:09:43.805Z,2.60
2022-10-06T14:24:51.449Z,5.70
2022-10-06T14:39:56.357Z,6.60
2022-10-06T14:55:00.313Z,45.50
2022-10-06T15:10:06.356Z,32.60
2022-10-06T15:25:30.477Z,104.80
2022-10-06T15:40:34.098Z,110.60
2022-10-06T15:55:39.087Z,145.30
2022-10-06T16:10:43.300Z,95.70
2022-10-06T16:25:46.679Z,87.10
2022-10-06T16:40:57.424Z,48.40
2022-10-06T16:56:00.957Z,40.10
2022-10-06T17:11:18.766Z,60.00
2022-10-06T17:26:24.659Z,43.50
2022-10-06T17:41:34.283Z,28.90
2022-10-06T17:56:39.034Z,31.40
2022-10-06T18:11:44.556Z,28.10
2022-10-06T18:26:49.882Z,28.70
2022-10-06T18:42:26.111Z,30.10
2022-10-06T18:57:29.876Z,35.70
2022-10-06T19:12:33.553Z,26.60
2022-10-06T19:27:38.801Z,20.70
2022-10-06T19:42:48.598Z,18.90
2022-10-06T19:57:51.902Z,25.90
2022-10-06T20:12:55.911Z,47.80
2022-10-06T20:27:59.344Z,58.90
2022-10-06T20:43:02.995Z,61.30
2022-10-06T20:58:05.977Z,44.50
2022-10-06T21:13:09.945Z,38.50
2022-10-06T21:28:14.054Z,35.40
2022-10-06T21:43:17.102Z,40.60
2022-10-06T21:58:20.031Z,38.00
2022-10-06T22:13:23.373Z,26.10
2022-10-06T22:28:26.967Z,22.00
2022-10-06T22:43:30.796Z,23.50
2022-10-06T22:58:34.159Z,22.40
2022-10-06T23:13:37.622Z,24.30
2022-10-06T23:28:41.391Z,17.50
2022-10-06T23:43:44.520Z,23.50
2022-10-06T23:58:48.159Z,21.20
